createdAt,value
2022-10-09T00:00:23.927Z,7
2022-10-09T00:02:23.941Z,6.9
2022-10-09T00:06:23.490Z,6.8
2022-10-09T00:08:26.862Z,6.8
2022-10-09T00:10:26.666Z,6.8
2022-10-09T00:12:26.527Z,6.8
2022-10-09T00:14:26.319Z,6.7
2022-10-09T00:16:26.268Z,6.7
2022-10-09T00:18:26.044Z,6.7
2022-10-09T00:20:25.967Z,6.7
2022-10-09T00:22:29.315Z,6.7
2022-10-09T00:24:29.252Z,6.7
2022-10-09T00:26:29.131Z,6.8
2022-10-09T00:27:30.803Z,6.8
2022-10-09T00:29:30.606Z,6.8
2022-10-09T00:31:30.501Z,6.8
2022-10-09T00:33:30.371Z,6.7
2022-10-09T00:35:33.814Z,6.6
2022-10-09T00:37:33.590Z,6.5
2022-10-09T00:39:33.456Z,6.5
2022-10-09T00:41:33.363Z,6.5
2022-10-09T00:43:33.235Z,6.5
2022-10-09T00:47:33.011Z,6.5
2022-10-09T00:49:36.327Z,6.6
2022-10-09T00:51:36.227Z,6.6
2022-10-09T01:01:35.801Z,6.7
2022-10-09T01:03:39.093Z,6.6
2022-10-09T01:05:38.964Z,6.5
2022-10-09T01:07:38.836Z,6.5
2022-10-09T01:09:38.631Z,6.5
2022-10-09T01:11:38.579Z,6.4
2022-10-09T01:13:38.322Z,6.4
2022-10-09T01:15:38.151Z,6.5
2022-10-09T01:17:41.515Z,6.3
2022-10-09T01:19:41.408Z,6.3
2022-10-09T01:21:41.309Z,6.2
2022-10-09T01:24:01.005Z,6.1
2022-10-09T01:26:00.904Z,6.2
2022-10-09T01:28:00.806Z,6.2
2022-10-09T01:30:04.214Z,6.1
2022-10-09T01:32:04.083Z,6
2022-10-09T01:34:04.002Z,6.1
2022-10-09T01:36:03.877Z,6.1
2022-10-09T01:38:03.771Z,6.2
2022-10-09T01:40:03.668Z,6.2
2022-10-09T01:42:03.564Z,6.3
2022-10-09T01:44:06.872Z,6.2
2022-10-09T01:46:06.860Z,6.2
2022-10-09T01:48:06.681Z,6.3
2022-10-09T01:50:06.599Z,6.3
2022-10-09T01:52:06.693Z,6.2
2022-10-09T01:54:06.376Z,6.1
2022-10-09T01:58:09.578Z,6.1
2022-10-09T02:00:09.485Z,6.1
2022-10-09T02:02:09.436Z,6
2022-10-09T02:04:09.277Z,5.8
2022-10-09T02:06:09.183Z,5.8
2022-10-09T02:08:09.107Z,5.8
2022-10-09T02:10:08.960Z,5.7
2022-10-09T02:12:12.291Z,5.8
2022-10-09T02:14:12.203Z,5.8
2022-10-09T02:16:12.242Z,5.8
2022-10-09T02:23:13.505Z,5.6
2022-10-09T02:25:16.897Z,5.5
2022-10-09T02:27:16.801Z,5.6
2022-10-09T02:29:16.728Z,5.5
2022-10-09T02:31:16.716Z,5.4
2022-10-09T02:33:16.562Z,5.4
2022-10-09T02:35:16.469Z,5.4
2022-10-09T02:37:16.382Z,5.4
2022-10-09T02:39:19.762Z,5.3
2022-10-09T02:43:19.624Z,5.3
2022-10-09T02:45:19.527Z,5.2
2022-10-09T02:47:19.429Z,5.2
2022-10-09T02:49:19.373Z,5.2
2022-10-09T02:51:19.277Z,5.2
2022-10-09T02:53:22.710Z,5.2
2022-10-09T02:55:22.630Z,5.2
2022-10-09T02:57:22.559Z,5.2
2022-10-09T02:59:22.500Z,5.1
2022-10-09T03:01:22.448Z,5
2022-10-09T03:03:22.478Z,5.1
2022-10-09T03:05:22.273Z,5
2022-10-09T03:07:25.666Z,4.9
2022-10-09T03:09:28.198Z,4.9
2022-10-09T03:11:25.524Z,4.9
2022-10-09T03:12:28.772Z,4.8
2022-10-09T03:14:28.674Z,4.9
2022-10-09T03:16:28.639Z,5
2022-10-09T03:18:28.486Z,5
2022-10-09T03:20:31.906Z,5
2022-10-09T03:22:31.844Z,4.9
2022-10-09T03:24:31.749Z,5
2022-10-09T03:26:31.682Z,4.9
2022-10-09T03:28:31.651Z,4.9
2022-10-09T03:30:31.542Z,4.8
2022-10-09T03:32:31.583Z,4.8
2022-10-09T03:34:34.868Z,4.8
2022-10-09T03:36:34.780Z,4.8
2022-10-09T03:38:34.678Z,4.7
2022-10-09T03:40:34.615Z,4.7
2022-10-09T03:42:34.555Z,4.7
2022-10-09T03:44:34.461Z,4.7
2022-10-09T03:46:34.467Z,4.7
2022-10-09T03:48:37.825Z,4.7
2022-10-09T03:56:37.538Z,4.6
2022-10-09T04:06:40.672Z,4.5
2022-10-09T04:07:42.388Z,4.6
2022-10-09T04:09:42.322Z,4.6
2022-10-09T04:11:42.228Z,4.6
2022-10-09T04:13:42.154Z,4.6
2022-10-09T04:15:45.576Z,4.5
2022-10-09T04:17:45.463Z,4.4
2022-10-09T04:19:45.409Z,4.4
2022-10-09T04:21:45.340Z,4.5
2022-10-09T04:23:45.290Z,4.5
2022-10-09T04:25:45.188Z,4.5
2022-10-09T04:27:45.132Z,4.6
2022-10-09T04:29:48.564Z,4.7
2022-10-09T04:31:48.589Z,4.7
2022-10-09T04:33:48.415Z,4.6
2022-10-09T04:35:48.339Z,4.7
2022-10-09T04:37:48.262Z,4.6
2022-10-09T04:39:48.211Z,4.5
2022-10-09T04:41:48.145Z,4.5
2022-10-09T04:43:51.558Z,4.4
2022-10-09T04:45:51.555Z,4.4
2022-10-09T04:47:51.388Z,4.4
2022-10-09T04:49:51.389Z,4.4
2022-10-09T04:51:51.280Z,4.4
2022-10-09T04:53:51.520Z,4.3
2022-10-09T04:55:51.141Z,4.5
2022-10-09T04:57:54.532Z,4.5
2022-10-09T05:01:54.437Z,4.4
2022-10-09T05:06:16.787Z,4.3
2022-10-09T05:08:16.718Z,4.4
2022-10-09T05:14:20.016Z,4.3
2022-10-09T05:16:19.981Z,4.3
2022-10-09T05:18:19.857Z,4.3
2022-10-09T05:20:19.766Z,4.4
2022-10-09T05:22:19.739Z,4.2
2022-10-09T05:24:23.145Z,4.3
2022-10-09T05:26:23.084Z,4.2
2022-10-09T05:28:23.062Z,4.2
2022-10-09T05:30:22.956Z,4.2
2022-10-09T05:32:22.884Z,4.2
2022-10-09T05:34:22.804Z,4.3
2022-10-09T05:36:22.716Z,4.2
2022-10-09T05:38:26.112Z,4.1
2022-10-09T05:40:29.106Z,4.1
2022-10-09T05:42:25.993Z,4.1
2022-10-09T05:44:25.902Z,4
2022-10-09T05:46:25.859Z,4.1
2022-10-09T05:48:25.800Z,4.2
2022-10-09T05:50:25.740Z,4.1
2022-10-09T05:52:29.192Z,4.1
2022-10-09T05:54:29.093Z,4.1
2022-10-09T05:56:29.039Z,4.2
2022-10-09T05:57:30.744Z,4.1
2022-10-09T05:59:30.669Z,4.1
2022-10-09T06:01:30.717Z,4.2
2022-10-09T06:03:30.548Z,4.2
2022-10-09T06:05:33.961Z,4.2
2022-10-09T06:07:33.902Z,4.2
2022-10-09T06:09:33.818Z,4.2
2022-10-09T06:11:33.727Z,4.2
2022-10-09T06:17:33.532Z,4.3
2022-10-09T06:19:36.935Z,4.4
2022-10-09T06:21:36.848Z,4.5
2022-10-09T06:25:36.712Z,4.6
2022-10-09T06:27:36.656Z,4.6
2022-10-09T06:29:36.606Z,4.7
2022-10-09T06:31:36.547Z,4.8
2022-10-09T06:33:39.968Z,4.8
2022-10-09T06:39:39.766Z,4.7
2022-10-09T06:41:39.701Z,4.8
2022-10-09T06:43:39.593Z,4.8
2022-10-09T06:45:39.689Z,4.8
2022-10-09T06:47:42.978Z,4.8
2022-10-09T06:49:42.917Z,4.8
2022-10-09T06:51:42.837Z,4.8
2022-10-09T06:52:44.550Z,4.9
2022-10-09T06:54:44.488Z,4.9
2022-10-09T06:56:44.428Z,4.9
2022-10-09T06:58:44.348Z,5
2022-10-09T07:02:48.144Z,5
2022-10-09T07:04:48.691Z,5
2022-10-09T07:06:48.605Z,5.1
2022-10-09T07:08:48.528Z,5.2
2022-10-09T07:10:48.569Z,5.3
2022-10-09T07:12:48.588Z,5.3
2022-10-09T07:14:51.790Z,5.4
2022-10-09T07:16:51.734Z,5.5
2022-10-09T07:18:51.646Z,5.6
2022-10-09T07:20:51.590Z,5.6
2022-10-09T07:22:51.765Z,5.6
2022-10-09T07:24:51.449Z,5.7
2022-10-09T07:26:51.348Z,5.8
2022-10-09T07:28:54.795Z,6
2022-10-09T07:30:54.773Z,6
2022-10-09T07:32:54.637Z,6.1
2022-10-09T07:34:54.590Z,6.2
2022-10-09T07:36:54.499Z,6.2
2022-10-09T07:38:54.415Z,6.3
2022-10-09T07:47:59.292Z,7
2022-10-09T07:49:59.215Z,7.1
2022-10-09T07:51:59.152Z,7.2
2022-10-09T07:53:59.051Z,7.3
2022-10-09T07:56:02.486Z,7.5
2022-10-09T07:58:02.413Z,7.5
2022-10-09T08:00:02.303Z,7.7
2022-10-09T08:02:02.261Z,7.8
2022-10-09T08:04:02.137Z,8
2022-10-09T08:06:02.008Z,8.2
2022-10-09T08:08:01.914Z,8.3
2022-10-09T08:14:05.102Z,8.5
2022-10-09T08:16:05.047Z,8.6
2022-10-09T08:18:04.880Z,8.7
2022-10-09T08:20:04.783Z,8.9
2022-10-09T08:22:04.652Z,9
2022-10-09T08:24:07.940Z,9.2
2022-10-09T08:26:07.865Z,9.3
2022-10-09T08:28:07.785Z,9.4
2022-10-09T08:30:07.621Z,9.5
2022-10-09T08:32:07.492Z,9.6
2022-10-09T08:34:07.262Z,9.8
2022-10-09T08:36:07.162Z,10
2022-10-09T08:38:25.310Z,10.1
2022-10-09T08:40:10.399Z,10.2
2022-10-09T08:42:10.295Z,10.3
2022-10-09T08:44:29.918Z,10.6
2022-10-09T08:46:29.714Z,10.6
2022-10-09T08:48:29.433Z,10.7
2022-10-09T08:50:32.615Z,10.9
2022-10-09T08:52:32.438Z,11
2022-10-09T08:54:32.194Z,11.2
2022-10-09T08:56:31.945Z,11.2
2022-10-09T08:58:33.313Z,11.4
2022-10-09T09:00:33.044Z,11.6
2022-10-09T09:02:32.805Z,11.6
2022-10-09T09:04:35.937Z,11.7
2022-10-09T09:06:35.709Z,11.7
2022-10-09T09:08:35.478Z,11.9
2022-10-09T09:10:35.220Z,12
2022-10-09T09:16:34.471Z,12
2022-10-09T09:18:42.549Z,12.3
2022-10-09T09:20:37.365Z,12.3
2022-10-09T09:22:37.105Z,12.4
2022-10-09T09:24:36.855Z,12.5
2022-10-09T09:30:36.063Z,12.8
2022-10-09T09:32:39.184Z,13
2022-10-09T09:34:38.933Z,13
2022-10-09T09:36:38.663Z,13.1
2022-10-09T09:37:40.234Z,13.2
2022-10-09T09:40:34.816Z,13.4
2022-10-09T09:41:39.660Z,15.5
2022-10-09T09:43:39.375Z,17.1
2022-10-09T09:45:42.470Z,18.2
2022-10-09T09:47:42.171Z,18.5
2022-10-09T09:49:41.844Z,19.6
2022-10-09T09:51:41.515Z,20.3
2022-10-09T09:53:41.210Z,19.3
2022-10-09T09:55:40.791Z,19.8
2022-10-09T09:57:40.413Z,19.4
2022-10-09T09:59:43.436Z,19.5
2022-10-09T10:05:42.059Z,20.4
2022-10-09T10:07:41.571Z,20
2022-10-09T10:09:41.087Z,19.3
2022-10-09T10:11:40.552Z,19.6
2022-10-09T10:13:43.453Z,21.3
2022-10-09T10:15:42.890Z,21
2022-10-09T10:19:41.530Z,20.5
2022-10-09T10:21:40.927Z,20.8
2022-10-09T10:23:40.222Z,21.5
2022-10-09T10:25:39.584Z,20.7
2022-10-09T10:27:42.210Z,19.9
2022-10-09T10:29:41.455Z,19.8
2022-10-09T10:31:40.774Z,20.2
2022-10-09T10:34:41.207Z,21.2
2022-10-09T10:36:40.427Z,22
2022-10-09T10:38:39.647Z,22
2022-10-09T10:40:42.189Z,21.4
2022-10-09T10:42:41.393Z,21.5
2022-10-09T10:44:40.585Z,22.2
2022-10-09T10:48:38.924Z,23.4
2022-10-09T10:50:38.069Z,22.5
2022-10-09T10:52:37.207Z,21.9
2022-10-09T10:54:39.716Z,21.7
2022-10-09T10:56:38.851Z,21.3
2022-10-09T10:58:37.982Z,21.3
2022-10-09T11:00:37.167Z,21.7
2022-10-09T11:02:40.951Z,21.1
2022-10-09T11:04:35.370Z,20.4
2022-10-09T11:06:34.494Z,21
2022-10-09T11:08:36.983Z,21.5
2022-10-09T11:10:36.098Z,21.5
2022-10-09T11:12:47.820Z,20.7
2022-10-09T11:14:34.348Z,20.4
2022-10-09T11:16:33.549Z,21
2022-10-09T11:18:32.567Z,21.2
2022-10-09T11:20:31.681Z,21
2022-10-09T11:22:34.176Z,21.2
2022-10-09T11:24:33.294Z,21.4
2022-10-09T11:26:32.413Z,20.4
2022-10-09T11:27:33.661Z,20.4
2022-10-09T11:29:32.785Z,20.6
2022-10-09T11:31:31.928Z,20.9
2022-10-09T11:33:31.025Z,20.8
2022-10-09T11:39:31.712Z,20.6
2022-10-09T11:41:30.862Z,21.4
2022-10-09T11:43:29.973Z,21
2022-10-09T11:45:29.094Z,21.1
2022-10-09T11:49:30.665Z,22
2022-10-09T11:51:29.765Z,21.9
2022-10-09T11:53:28.888Z,21.6
2022-10-09T11:55:28.125Z,21.7
2022-10-09T12:09:25.009Z,21.4
2022-10-09T12:11:24.109Z,21.6
2022-10-09T12:13:23.186Z,21.9
2022-10-09T12:15:22.457Z,21.2
2022-10-09T12:17:24.742Z,20.8
2022-10-09T12:19:23.856Z,21.2
2022-10-09T12:21:22.965Z,21.4
2022-10-09T12:23:43.863Z,21.5
2022-10-09T12:25:42.978Z,21.4
2022-10-09T12:27:42.073Z,21.2
2022-10-09T12:29:44.561Z,22.3
2022-10-09T12:31:43.673Z,22.7
2022-10-09T12:33:42.815Z,22.7
2022-10-09T12:35:41.919Z,23
2022-10-09T12:37:41.044Z,22.7
2022-10-09T12:39:40.150Z,22.1
2022-10-09T12:41:39.268Z,22.4
2022-10-09T12:43:41.773Z,22.9
2022-10-09T12:45:40.924Z,22.9
2022-10-09T12:47:40.009Z,22.9
2022-10-09T12:49:39.127Z,22.7
2022-10-09T12:51:38.251Z,22.4
2022-10-09T12:57:39.047Z,23
2022-10-09T13:09:33.895Z,23.4
2022-10-09T13:11:36.412Z,22.1
2022-10-09T13:13:35.564Z,22.2
2022-10-09T13:15:34.745Z,22.2
2022-10-09T13:16:36.094Z,23.2
2022-10-09T13:18:35.168Z,23.3
2022-10-09T13:20:34.341Z,23.3
2022-10-09T13:22:35.137Z,23.2
2022-10-09T13:24:36.069Z,23.9
2022-10-09T13:28:34.515Z,23.4
2022-10-09T13:32:32.820Z,23.7
2022-10-09T13:34:31.982Z,23
2022-10-09T13:36:31.185Z,23.4
2022-10-09T13:38:35.051Z,24.4
2022-10-09T13:40:32.945Z,24.3
2022-10-09T13:42:32.145Z,23.6
2022-10-09T13:44:31.334Z,23.4
2022-10-09T13:46:30.606Z,23.6
2022-10-09T13:48:29.757Z,23.8
2022-10-09T13:50:28.969Z,24.1
2022-10-09T13:52:31.575Z,23.6
2022-10-09T13:54:30.742Z,24.3
2022-10-09T13:56:29.945Z,25.2
2022-10-09T13:58:29.197Z,25.4
2022-10-09T14:00:28.394Z,25.2
2022-10-09T14:04:26.843Z,25.2
2022-10-09T14:06:29.423Z,22.4
2022-10-09T14:08:28.641Z,22.3
2022-10-09T14:11:29.202Z,24.3
2022-10-09T14:13:28.439Z,24.2
2022-10-09T14:15:27.796Z,24.2
2022-10-09T14:17:26.910Z,23.5
2022-10-09T14:19:29.494Z,22.9
2022-10-09T14:21:28.853Z,22.9
2022-10-09T14:23:28.018Z,22.6
2022-10-09T14:25:27.290Z,22.8
2022-10-09T14:29:25.769Z,23.9
2022-10-09T14:31:25.055Z,23.6
2022-10-09T14:33:27.671Z,24
2022-10-09T14:35:26.941Z,24
2022-10-09T14:37:41.021Z,23.9
2022-10-09T14:41:24.829Z,23
2022-10-09T14:43:25.581Z,23.5
2022-10-09T14:45:24.855Z,23.4
2022-10-09T14:47:27.561Z,22.9
2022-10-09T14:49:26.864Z,23.2
2022-10-09T14:51:26.144Z,23.4
2022-10-09T14:53:25.443Z,23.6
2022-10-09T14:55:24.848Z,23.4
2022-10-09T14:57:24.016Z,23.1
2022-10-09T14:59:24.021Z,22.9
2022-10-09T15:01:26.674Z,23.8
2022-10-09T15:06:26.588Z,22.7
2022-10-09T15:08:25.863Z,23
2022-10-09T15:10:25.176Z,23.3
2022-10-09T15:18:25.832Z,23.5
2022-10-09T15:24:23.874Z,23
2022-10-09T15:26:23.203Z,22.2
2022-10-09T15:28:25.995Z,22.7
2022-10-09T15:30:25.295Z,22.6
2022-10-09T15:32:24.701Z,22.7
2022-10-09T15:34:24.010Z,22.4
2022-10-09T15:36:23.349Z,21.2
2022-10-09T15:38:22.697Z,19.3
2022-10-09T15:42:24.895Z,17.1
2022-10-09T15:44:24.232Z,16.9
2022-10-09T15:46:23.693Z,16.7
2022-10-09T15:54:21.569Z,16.2
2022-10-09T15:56:24.576Z,16.1
2022-10-09T15:58:23.992Z,16.1
2022-10-09T16:00:23.464Z,16
2022-10-09T16:02:44.995Z,15.8
2022-10-09T16:04:44.516Z,15.8
2022-10-09T16:06:44.032Z,15.7
2022-10-09T16:08:46.978Z,15.5
2022-10-09T16:10:48.778Z,15.5
2022-10-09T16:12:46.097Z,15.3
2022-10-09T16:16:45.175Z,15.1
2022-10-09T16:18:44.670Z,15
2022-10-09T16:20:44.231Z,14.9
2022-10-09T16:22:47.501Z,14.6
2022-10-09T16:26:46.331Z,14.4
2022-10-09T16:30:45.501Z,14.2
2022-10-09T16:32:45.089Z,14.1
2022-10-09T16:41:01.514Z,13.4
2022-10-09T16:42:46.661Z,13.3
2022-10-09T16:44:46.135Z,13.2
2022-10-09T16:46:45.769Z,13
2022-10-09T16:48:45.390Z,12.9
2022-10-09T16:50:48.435Z,12.8
2022-10-09T16:52:48.071Z,12.8
2022-10-09T16:54:47.657Z,12.7
2022-10-09T16:55:49.183Z,12.6
2022-10-09T16:57:49.150Z,12.5
2022-10-09T17:01:48.137Z,12.1
2022-10-09T17:05:50.832Z,11.8
2022-10-09T17:07:50.755Z,11.7
2022-10-09T17:09:50.172Z,11.5
2022-10-09T17:11:49.833Z,11.4
2022-10-09T17:13:49.552Z,11.3
2022-10-09T17:15:49.194Z,11.2
2022-10-09T17:17:52.598Z,11
2022-10-09T17:19:52.037Z,11
2022-10-09T17:21:51.654Z,10.9
2022-10-09T17:27:50.685Z,10.7
2022-10-09T17:29:50.360Z,10.6
2022-10-09T17:31:53.475Z,10.4
2022-10-09T17:33:53.149Z,10.4
2022-10-09T17:35:52.835Z,10.4
2022-10-09T17:41:51.912Z,10.2
2022-10-09T17:43:51.619Z,10.1
2022-10-09T17:45:54.715Z,10
2022-10-09T17:47:54.441Z,10
2022-10-09T17:49:54.132Z,9.9
2022-10-09T17:50:55.715Z,9.8
2022-10-09T17:52:55.412Z,9.8
2022-10-09T17:54:55.107Z,9.7
2022-10-09T17:56:54.822Z,9.6
2022-10-09T17:58:57.912Z,9.5
2022-10-09T18:02:57.356Z,9.5
2022-10-09T18:06:56.789Z,9.4
2022-10-09T18:08:56.501Z,9.4
2022-10-09T18:10:56.229Z,9.3
2022-10-09T18:12:59.363Z,9.2
2022-10-09T18:14:59.084Z,9.2
2022-10-09T18:18:58.560Z,9.1
2022-10-09T18:22:58.023Z,9
2022-10-09T18:24:57.735Z,9
2022-10-09T18:27:00.881Z,8.9
2022-10-09T18:29:00.630Z,8.8
2022-10-09T18:31:00.378Z,8.8
2022-10-09T18:33:00.119Z,8.7
2022-10-09T18:36:59.589Z,8.7
2022-10-09T18:43:02.246Z,8.6
2022-10-09T18:45:01.999Z,8.6
2022-10-09T18:46:03.560Z,8.4
2022-10-09T18:48:03.324Z,8.4
2022-10-09T18:52:02.852Z,8.4
2022-10-09T18:54:06.018Z,8.4
2022-10-09T18:56:05.834Z,8.3
2022-10-09T18:58:05.570Z,8.3
2022-10-09T19:00:05.470Z,8.3
2022-10-09T19:02:05.196Z,8.2
2022-10-09T19:04:04.976Z,8.2
2022-10-09T19:06:04.840Z,8.2
2022-10-09T19:08:08.067Z,8.1
2022-10-09T19:10:07.846Z,8.1
2022-10-09T19:12:07.747Z,8.1
2022-10-09T19:14:07.440Z,8
2022-10-09T19:16:07.212Z,8
2022-10-09T19:18:06.998Z,8
2022-10-09T19:20:06.898Z,7.9
2022-10-09T19:22:14.873Z,7.8
2022-10-09T19:24:09.957Z,7.9
2022-10-09T19:26:09.830Z,7.9
2022-10-09T19:28:09.743Z,7.8
2022-10-09T19:30:09.581Z,7.8
2022-10-09T19:32:09.449Z,7.7
2022-10-09T19:34:09.305Z,7.8
2022-10-09T19:36:12.590Z,7.7
2022-10-09T19:42:32.099Z,7.6
2022-10-09T19:44:31.903Z,7.6
2022-10-09T19:46:31.766Z,7.5
2022-10-09T19:48:35.061Z,7.5
2022-10-09T19:50:34.926Z,7.5
2022-10-09T19:52:34.817Z,7.4
2022-10-09T19:54:34.683Z,7.4
2022-10-09T19:56:34.483Z,7.3
2022-10-09T19:58:34.297Z,7.3
2022-10-09T20:00:34.171Z,7.3
2022-10-09T20:04:37.438Z,7.1
2022-10-09T20:06:37.327Z,7.1
2022-10-09T20:08:37.226Z,7.1
2022-10-09T20:10:37.094Z,7.1
2022-10-09T20:12:36.897Z,7.1
2022-10-09T20:14:36.793Z,7.1
2022-10-09T20:16:40.169Z,7.1
2022-10-09T20:18:40.088Z,7
2022-10-09T20:20:39.949Z,7
2022-10-09T20:22:39.842Z,7
2022-10-09T20:34:44.152Z,6.8
2022-10-09T20:35:45.867Z,6.8
2022-10-09T20:37:45.549Z,6.8
2022-10-09T20:39:45.470Z,6.8
2022-10-09T20:41:45.344Z,6.8
2022-10-09T20:43:48.647Z,6.8
2022-10-09T20:45:48.530Z,6.8
2022-10-09T20:47:48.444Z,6.7
2022-10-09T20:51:48.226Z,6.7
2022-10-09T20:55:47.916Z,6.7
2022-10-09T20:57:54.836Z,6.6
2022-10-09T20:59:51.229Z,6.6
2022-10-09T21:01:51.125Z,6.6
2022-10-09T21:03:51.015Z,6.5
2022-10-09T21:05:50.916Z,6.5
2022-10-09T21:09:50.745Z,6.5
2022-10-09T21:11:54.152Z,6.4
2022-10-09T21:13:54.064Z,6.5
2022-10-09T21:15:53.989Z,6.4
2022-10-09T21:17:53.894Z,6.4
2022-10-09T21:19:53.808Z,6.4
2022-10-09T21:21:53.704Z,6.4
2022-10-09T21:23:53.621Z,6.4
2022-10-09T21:25:56.993Z,6.4
2022-10-09T21:29:56.846Z,6.4
2022-10-09T21:39:01.647Z,6.2
2022-10-09T21:41:01.550Z,6.2
2022-10-09T21:43:01.468Z,6.2
2022-10-09T21:45:01.365Z,6.2
2022-10-09T21:47:01.334Z,6.2
2022-10-09T21:49:05.410Z,6.3
2022-10-09T21:51:01.128Z,6.2
2022-10-09T21:53:04.522Z,6.2
2022-10-09T21:55:04.451Z,6.2
2022-10-09T21:57:04.373Z,6.2
2022-10-09T21:59:04.286Z,6.2
2022-10-09T22:01:04.281Z,6.1
2022-10-09T22:03:04.099Z,6.1
2022-10-09T22:05:03.998Z,6.1
2022-10-09T22:07:07.418Z,6.1
2022-10-09T22:09:07.333Z,6.1
2022-10-09T22:15:07.043Z,5.9
2022-10-09T22:21:10.339Z,5.9
2022-10-09T22:23:10.271Z,5.9
2022-10-09T22:25:10.197Z,5.8
2022-10-09T22:26:11.900Z,5.9
2022-10-09T22:28:11.846Z,5.9
2022-10-09T22:30:11.711Z,6
2022-10-09T22:32:11.627Z,6
2022-10-09T22:34:15.045Z,5.9
2022-10-09T22:36:14.969Z,5.9
2022-10-09T22:38:14.905Z,5.9
2022-10-09T22:40:14.793Z,5.8
2022-10-09T22:42:14.713Z,5.8
2022-10-09T22:44:14.658Z,5.8
2022-10-09T22:46:14.564Z,5.7
2022-10-09T22:48:17.946Z,5.8
2022-10-09T22:50:17.876Z,5.8
2022-10-09T22:54:17.732Z,5.8
2022-10-09T22:56:17.655Z,5.8
2022-10-09T22:58:17.588Z,5.7
2022-10-09T23:04:20.841Z,5.7
2022-10-09T23:06:20.755Z,5.7
2022-10-09T23:08:20.654Z,5.6
2022-10-09T23:10:20.588Z,5.7
2022-10-09T23:12:20.516Z,5.6
2022-10-09T23:14:20.413Z,5.6
2022-10-09T23:16:23.832Z,5.6
2022-10-09T23:18:23.757Z,5.6
2022-10-09T23:20:23.667Z,5.6
2022-10-09T23:24:45.954Z,5.6
2022-10-09T23:26:45.875Z,5.6
2022-10-09T23:38:48.915Z,5.6
2022-10-09T23:40:48.830Z,5.5
2022-10-09T23:42:52.681Z,5.5
2022-10-09T23:44:52.210Z,5.5
2022-10-09T23:46:52.112Z,5.6
2022-10-09T23:48:52.054Z,5.5
2022-10-09T23:50:52.001Z,5.5
2022-10-09T23:52:52.433Z,5.6
2022-10-09T23:54:51.840Z,5.6
